Time;durP1;ratioP1;P1;durP2;ratioP2;P2;SDS_P1;SDS_P2;PMS_P1;PMS_P2;Temp;Humidity;BMP_temperature;BMP_pressure;BME280_temperature;BME280_humidity;BME280_pressure;Samples;Min_cycle;Max_cycle;Signal;HPM_P1;HPM_P2
2023/11/19 00:00:04;;;;;;;;;;;20.10;61.20;;;;;;1517646;76;706;-60
2023/11/19 00:02:05;;;;;;;;;;;20.10;61.40;;;;;;1522333;76;1649;-60
2023/11/19 00:04:07;;;;;;;;;;;20.10;61.30;;;;;;1522407;76;1936;-60
2023/11/19 00:06:11;;;;;;;;;;;20.10;61.30;;;;;;1523276;76;778;-59
2023/11/19 00:08:13;;;;;;;;;;;20.10;61.30;;;;;;1519230;76;792;-60
2023/11/19 00:10:18;;;;;;;;;;;20.10;61.50;;;;;;1514530;76;761;-60
2023/11/19 00:12:18;;;;;;;;;;;20.10;61.30;;;;;;1521742;75;1497;-60
2023/11/19 00:14:20;;;;;;;;;;;20.10;61.30;;;;;;1518905;76;661;-62
2023/11/19 00:16:22;;;;;;;;;;;20.10;61.40;;;;;;1528627;76;677;-60
2023/11/19 00:18:24;;;;;;;;;;;20.10;61.50;;;;;;1520476;76;1500;-60
2023/11/19 00:20:26;;;;;;;;;;;20.10;61.40;;;;;;1525555;76;784;-61
2023/11/19 00:22:28;;;;;;;;;;;20.10;61.50;;;;;;1522098;76;1130;-60
2023/11/19 00:24:30;;;;;;;;;;;20.10;61.30;;;;;;1522343;76;1940;-61
2023/11/19 00:26:32;;;;;;;;;;;20.10;61.30;;;;;;1515658;76;687;-59
2023/11/19 00:28:34;;;;;;;;;;;20.10;61.50;;;;;;1518140;76;712;-62
2023/11/19 00:30:36;;;;;;;;;;;20.10;61.40;;;;;;1509968;76;781;-59
2023/11/19 00:32:39;;;;;;;;;;;20.10;61.40;;;;;;1524626;75;1584;-60
2023/11/19 00:34:41;;;;;;;;;;;20.10;61.50;;;;;;1514033;76;734;-59
2023/11/19 00:36:44;;;;;;;;;;;20.00;61.40;;;;;;1526216;76;703;-59
2023/11/19 00:38:46;;;;;;;;;;;20.10;61.70;;;;;;1515513;76;727;-59
2023/11/19 00:40:48;;;;;;;;;;;20.10;61.60;;;;;;1517259;76;766;-59
2023/11/19 00:42:50;;;;;;;;;;;20.10;61.50;;;;;;1521723;76;1147;-60
2023/11/19 00:44:52;;;;;;;;;;;20.10;61.60;;;;;;1514191;76;751;-60
2023/11/19 00:46:54;;;;;;;;;;;20.00;61.50;;;;;;1518842;76;1538;-60
2023/11/19 00:48:58;;;;;;;;;;;20.10;61.50;;;;;;1523523;76;720;-60
2023/11/19 00:50:59;;;;;;;;;;;20.10;61.60;;;;;;1526526;76;1693;-60
2023/11/19 00:53:03;;;;;;;;;;;20.10;61.60;;;;;;1523522;76;1169;-60
2023/11/19 00:55:05;;;;;;;;;;;20.10;61.50;;;;;;1525321;76;752;-62
2023/11/19 00:57:07;;;;;;;;;;;20.10;61.60;;;;;;1524496;76;905;-60
2023/11/19 00:59:09;;;;;;;;;;;20.10;61.60;;;;;;1521284;76;735;-59
2023/11/19 01:01:12;;;;;;;;;;;20.10;61.70;;;;;;1515952;76;1549;-59
2023/11/19 01:03:15;;;;;;;;;;;20.00;61.70;;;;;;1515716;76;1950;-60
2023/11/19 01:05:21;;;;;;;;;;;20.10;61.70;;;;;;1528879;76;735;-61
2023/11/19 01:07:21;;;;;;;;;;;20.10;61.80;;;;;;1528078;76;2071;-61
2023/11/19 01:09:23;;;;;;;;;;;20.10;61.60;;;;;;1535397;76;702;-61
2023/11/19 01:11:25;;;;;;;;;;;20.10;61.80;;;;;;1520291;76;723;-62
2023/11/19 01:13:27;;;;;;;;;;;20.10;61.80;;;;;;1525157;76;1092;-61
2023/11/19 01:15:29;;;;;;;;;;;20.10;61.70;;;;;;1521001;76;1280;-61
2023/11/19 01:17:31;;;;;;;;;;;20.10;61.80;;;;;;1519341;76;799;-61
2023/11/19 01:19:34;;;;;;;;;;;20.10;61.90;;;;;;1526899;76;742;-61
2023/11/19 01:21:36;;;;;;;;;;;20.10;61.80;;;;;;1516907;76;606;-60
2023/11/19 01:23:38;;;;;;;;;;;20.10;61.80;;;;;;1522917;76;1938;-61
2023/11/19 01:25:39;;;;;;;;;;;20.10;61.80;;;;;;1513890;76;725;-62
2023/11/19 01:27:41;;;;;;;;;;;20.10;61.90;;;;;;1519676;76;782;-61
2023/11/19 01:29:43;;;;;;;;;;;20.10;61.80;;;;;;1523054;76;1315;-60
2023/11/19 01:31:47;;;;;;;;;;;20.10;61.90;;;;;;1523646;76;756;-62
2023/11/19 01:33:49;;;;;;;;;;;20.10;61.90;;;;;;1516557;76;728;-60
2023/11/19 01:35:51;;;;;;;;;;;20.10;61.90;;;;;;1520982;76;592;-61
2023/11/19 01:37:52;;;;;;;;;;;20.10;61.80;;;;;;1518960;76;725;-60
2023/11/19 01:39:54;;;;;;;;;;;20.10;61.90;;;;;;1523070;76;674;-60
2023/11/19 01:41:56;;;;;;;;;;;20.10;62.10;;;;;;1525914;76;1113;-60
2023/11/19 01:43:58;;;;;;;;;;;20.10;61.90;;;;;;1515699;76;1942;-61
2023/11/19 01:46:01;;;;;;;;;;;20.10;61.90;;;;;;1521760;76;799;-60
2023/11/19 01:48:06;;;;;;;;;;;20.10;61.90;;;;;;1510701;76;723;-60
2023/11/19 01:50:08;;;;;;;;;;;20.10;61.90;;;;;;1522388;76;734;-61
2023/11/19 01:52:10;;;;;;;;;;;20.00;61.70;;;;;;1520983;76;1129;-61
2023/11/19 01:54:12;;;;;;;;;;;20.10;61.90;;;;;;1521390;76;841;-63
2023/11/19 01:56:14;;;;;;;;;;;20.10;61.90;;;;;;1520528;76;772;-60
2023/11/19 01:58:16;;;;;;;;;;;20.10;61.80;;;;;;1515023;76;1578;-61
2023/11/19 02:00:18;;;;;;;;;;;20.10;61.80;;;;;;1520826;76;713;-60
2023/11/19 02:02:20;;;;;;;;;;;20.10;61.90;;;;;;1516535;76;1159;-61
2023/11/19 02:04:22;;;;;;;;;;;20.10;61.90;;;;;;1523365;76;1924;-60
2023/11/19 02:06:24;;;;;;;;;;;20.10;61.90;;;;;;1528340;76;810;-62
2023/11/19 02:08:26;;;;;;;;;;;20.10;61.90;;;;;;1515413;76;671;-61
2023/11/19 02:10:28;;;;;;;;;;;20.10;61.80;;;;;;1519629;76;748;-60
2023/11/19 02:12:33;;;;;;;;;;;20.10;61.90;;;;;;1512374;76;1601;-61
2023/11/19 02:14:33;;;;;;;;;;;20.10;61.90;;;;;;1524464;76;1657;-60
2023/11/19 02:16:35;;;;;;;;;;;20.10;61.80;;;;;;1520157;76;741;-61
2023/11/19 02:18:37;;;;;;;;;;;20.10;62.00;;;;;;1526218;76;712;-60
2023/11/19 02:20:40;;;;;;;;;;;20.10;61.90;;;;;;1517399;76;790;-60
2023/11/19 02:22:42;;;;;;;;;;;20.10;61.90;;;;;;1519469;76;1099;-61
2023/11/19 02:24:44;;;;;;;;;;;20.10;62.00;;;;;;1521805;76;1941;-61
2023/11/19 02:26:47;;;;;;;;;;;20.10;62.00;;;;;;1521855;76;685;-62
2023/11/19 02:28:50;;;;;;;;;;;20.10;62.00;;;;;;1512681;76;770;-61
2023/11/19 02:30:53;;;;;;;;;;;20.10;62.10;;;;;;1518889;76;801;-62
2023/11/19 02:32:57;;;;;;;;;;;20.10;61.90;;;;;;1519464;76;1167;-61
2023/11/19 02:34:58;;;;;;;;;;;20.10;62.10;;;;;;1517975;76;817;-63
2023/11/19 02:37:00;;;;;;;;;;;20.10;62.20;;;;;;1528215;76;709;-62
2023/11/19 02:39:02;;;;;;;;;;;20.10;62.10;;;;;;1521284;76;1533;-58
2023/11/19 02:41:08;;;;;;;;;;;20.10;62.10;;;;;;1533838;76;710;-60
2023/11/19 02:43:10;;;;;;;;;;;20.10;62.20;;;;;;1517372;76;1161;-60
2023/11/19 02:45:14;;;;;;;;;;;20.10;62.10;;;;;;1510985;76;1937;-63
2023/11/19 02:47:17;;;;;;;;;;;20.10;62.00;;;;;;1515658;76;758;-59
2023/11/19 02:49:18;;;;;;;;;;;20.10;62.20;;;;;;1534241;76;787;-59
2023/11/19 02:51:20;;;;;;;;;;;20.10;62.20;;;;;;1516936;76;688;-60
2023/11/19 02:53:24;;;;;;;;;;;20.10;62.20;;;;;;1509937;76;1589;-60
2023/11/19 02:55:30;;;;;;;;;;;20.10;62.20;;;;;;1514361;76;822;-57
2023/11/19 02:57:32;;;;;;;;;;;20.10;62.20;;;;;;1517090;76;1042;-60
2023/11/19 02:59:38;;;;;;;;;;;20.10;62.20;;;;;;1520111;76;1493;-61
2023/11/19 03:01:43;;;;;;;;;;;20.10;62.10;;;;;;1527293;76;1638;-59
2023/11/19 03:03:41;;;;;;;;;;;20.10;62.30;;;;;;1518968;76;1583;-62
2023/11/19 03:05:44;;;;;;;;;;;20.10;62.10;;;;;;1523104;76;675;-63
2023/11/19 03:07:46;;;;;;;;;;;20.10;62.10;;;;;;1523923;76;1518;-60
2023/11/19 03:09:49;;;;;;;;;;;20.10;62.10;;;;;;1524137;76;723;-61
2023/11/19 03:11:51;;;;;;;;;;;20.10;62.20;;;;;;1519183;76;1165;-60
2023/11/19 03:13:53;;;;;;;;;;;20.00;62.00;;;;;;1506319;77;1079;-58
2023/11/19 03:15:55;;;;;;;;;;;20.10;62.10;;;;;;1522802;76;780;-60
2023/11/19 03:17:57;;;;;;;;;;;20.10;62.20;;;;;;1521302;76;702;-59
2023/11/19 03:19:58;;;;;;;;;;;20.10;62.10;;;;;;1518153;76;739;-60
2023/11/19 03:22:01;;;;;;;;;;;20.10;62.00;;;;;;1525794;76;1203;-59
2023/11/19 03:24:03;;;;;;;;;;;20.10;62.00;;;;;;1521696;76;1925;-59
2023/11/19 03:26:05;;;;;;;;;;;20.10;61.90;;;;;;1528381;76;725;-60
2023/11/19 03:28:07;;;;;;;;;;;20.10;61.90;;;;;;1524337;76;741;-59
2023/11/19 03:30:12;;;;;;;;;;;20.10;61.80;;;;;;1522484;76;770;-60
2023/11/19 03:32:15;;;;;;;;;;;20.10;61.80;;;;;;1517538;76;1159;-60
2023/11/19 03:34:17;;;;;;;;;;;20.10;61.80;;;;;;1517942;76;677;-60
2023/11/19 03:36:19;;;;;;;;;;;20.10;61.80;;;;;;1523067;76;1545;-59
2023/11/19 03:38:20;;;;;;;;;;;20.10;61.70;;;;;;1526910;76;673;-60
2023/11/19 03:40:24;;;;;;;;;;;20.10;61.60;;;;;;1515980;76;810;-58
2023/11/19 03:42:26;;;;;;;;;;;20.10;61.60;;;;;;1519650;76;1146;-63
2023/11/19 03:44:28;;;;;;;;;;;20.10;61.60;;;;;;1521036;76;1917;-60
2023/11/19 03:46:30;;;;;;;;;;;20.20;61.70;;;;;;1521838;76;757;-58
2023/11/19 03:48:32;;;;;;;;;;;20.10;61.60;;;;;;1522598;76;856;-58
2023/11/19 03:50:34;;;;;;;;;;;20.10;61.60;;;;;;1521462;76;1635;-60
2023/11/19 03:52:37;;;;;;;;;;;20.20;61.60;;;;;;1505405;76;1153;-56
2023/11/19 03:54:38;;;;;;;;;;;20.10;61.60;;;;;;1528125;76;824;-59
2023/11/19 03:56:40;;;;;;;;;;;20.20;61.60;;;;;;1522377;76;780;-60
2023/11/19 03:58:43;;;;;;;;;;;20.10;61.70;;;;;;1520773;76;802;-61
2023/11/19 04:00:44;;;;;;;;;;;20.20;61.70;;;;;;1521226;76;761;-59
2023/11/19 04:02:47;;;;;;;;;;;20.20;61.70;;;;;;1530839;76;1184;-60
2023/11/19 04:04:49;;;;;;;;;;;20.20;61.70;;;;;;1512302;76;1929;-60
2023/11/19 04:06:50;;;;;;;;;;;20.20;61.80;;;;;;1520177;76;672;-61
2023/11/19 04:08:52;;;;;;;;;;;20.20;61.90;;;;;;1515241;76;685;-60
2023/11/19 04:10:54;;;;;;;;;;;20.20;61.80;;;;;;1521293;76;712;-58
2023/11/19 04:12:56;;;;;;;;;;;20.20;62.00;;;;;;1518804;76;1159;-60
2023/11/19 04:14:58;;;;;;;;;;;20.20;61.90;;;;;;1530161;76;677;-60
2023/11/19 04:17:00;;;;;;;;;;;20.20;62.00;;;;;;1521751;76;734;-60
2023/11/19 04:19:02;;;;;;;;;;;20.20;62.00;;;;;;1521048;76;1620;-61
2023/11/19 04:21:06;;;;;;;;;;;20.20;62.00;;;;;;1517622;76;742;-60
2023/11/19 04:23:08;;;;;;;;;;;20.20;62.10;;;;;;1518719;76;1145;-60
2023/11/19 04:25:10;;;;;;;;;;;20.20;62.10;;;;;;1531994;76;1929;-61
2023/11/19 04:27:12;;;;;;;;;;;20.20;62.00;;;;;;1527282;76;823;-61
2023/11/19 04:29:15;;;;;;;;;;;20.20;62.30;;;;;;1521403;76;722;-62
2023/11/19 04:31:17;;;;;;;;;;;20.20;62.50;;;;;;1512335;76;1454;-65
2023/11/19 04:33:19;;;;;;;;;;;20.20;62.40;;;;;;1520902;76;1224;-61
2023/11/19 04:35:21;;;;;;;;;;;20.20;62.10;;;;;;1522275;76;660;-60
2023/11/19 04:37:23;;;;;;;;;;;20.20;62.20;;;;;;1510462;76;693;-61
2023/11/19 04:39:24;;;;;;;;;;;20.20;62.40;;;;;;1515450;76;696;-61
2023/11/19 04:41:31;;;;;;;;;;;20.20;62.50;;;;;;1518967;76;702;-60
2023/11/19 04:43:31;;;;;;;;;;;20.20;62.50;;;;;;1520613;75;1580;-60
2023/11/19 04:45:33;;;;;;;;;;;20.20;62.50;;;;;;1518777;76;1936;-60
2023/11/19 04:47:34;;;;;;;;;;;20.20;62.60;;;;;;1514974;76;784;-60
2023/11/19 04:49:38;;;;;;;;;;;20.20;62.50;;;;;;1533359;76;797;-61
2023/11/19 04:51:43;;;;;;;;;;;20.20;62.60;;;;;;1523800;76;1944;-60
2023/11/19 04:53:45;;;;;;;;;;;20.20;62.40;;;;;;1523381;75;1170;-60
2023/11/19 04:55:47;;;;;;;;;;;20.20;62.60;;;;;;1524511;76;809;-60
2023/11/19 04:57:49;;;;;;;;;;;20.20;62.60;;;;;;1520369;76;746;-60
2023/11/19 04:59:51;;;;;;;;;;;20.20;62.80;;;;;;1516140;76;1515;-60
2023/11/19 05:01:53;;;;;;;;;;;20.20;62.70;;;;;;1516335;76;1221;-60
2023/11/19 05:03:55;;;;;;;;;;;20.20;62.90;;;;;;1522333;76;720;-60
2023/11/19 05:05:57;;;;;;;;;;;20.20;62.70;;;;;;1522948;76;1950;-60
2023/11/19 05:07:59;;;;;;;;;;;20.20;62.80;;;;;;1517694;76;578;-60
2023/11/19 05:10:00;;;;;;;;;;;20.20;62.90;;;;;;1537462;76;663;-60
2023/11/19 05:12:02;;;;;;;;;;;20.20;62.90;;;;;;1524592;76;1119;-63
2023/11/19 05:14:04;;;;;;;;;;;20.20;63.00;;;;;;1510038;76;1562;-61
2023/11/19 05:16:07;;;;;;;;;;;20.20;62.90;;;;;;1527980;76;796;-61
2023/11/19 05:18:09;;;;;;;;;;;20.20;62.90;;;;;;1521351;76;893;-62
2023/11/19 05:20:13;;;;;;;;;;;20.10;62.90;;;;;;1519512;76;817;-60
2023/11/19 05:22:14;;;;;;;;;;;20.20;62.80;;;;;;1521406;76;1689;-60
2023/11/19 05:24:16;;;;;;;;;;;20.10;62.80;;;;;;1527028;76;740;-61
2023/11/19 05:26:19;;;;;;;;;;;20.10;62.90;;;;;;1522360;76;1920;-60
2023/11/19 05:28:24;;;;;;;;;;;20.20;63.00;;;;;;1521526;76;1650;-61
2023/11/19 05:30:25;;;;;;;;;;;20.20;62.80;;;;;;1516031;76;1528;-60
2023/11/19 05:32:27;;;;;;;;;;;20.20;62.90;;;;;;1519422;76;1125;-60
2023/11/19 05:34:29;;;;;;;;;;;20.20;62.90;;;;;;1514575;76;738;-61
2023/11/19 05:36:31;;;;;;;;;;;20.20;62.80;;;;;;1520899;76;815;-61
2023/11/19 05:38:33;;;;;;;;;;;20.10;62.80;;;;;;1517766;76;694;-60
2023/11/19 05:40:35;;;;;;;;;;;20.20;62.70;;;;;;1525274;76;868;-60
2023/11/19 05:42:37;;;;;;;;;;;20.20;62.70;;;;;;1518144;76;1544;-61
2023/11/19 05:44:39;;;;;;;;;;;20.10;62.70;;;;;;1517136;76;724;-60
2023/11/19 05:46:42;;;;;;;;;;;20.10;62.60;;;;;;1521473;76;774;-60
2023/11/19 05:48:46;;;;;;;;;;;20.10;62.60;;;;;;1526427;76;692;-60
2023/11/19 05:50:49;;;;;;;;;;;20.10;62.70;;;;;;1519777;76;820;-61
2023/11/19 05:52:52;;;;;;;;;;;20.20;62.70;;;;;;1518172;76;1170;-60
2023/11/19 05:54:54;;;;;;;;;;;20.10;62.70;;;;;;1516750;76;747;-61
2023/11/19 05:56:57;;;;;;;;;;;20.10;62.70;;;;;;1520074;76;1571;-62
2023/11/19 05:59:07;;;;;;;;;;;20.10;62.70;;;;;;1516570;76;760;-61
2023/11/19 06:01:03;;;;;;;;;;;20.10;62.60;;;;;;1518563;76;1426;-60
2023/11/19 06:03:05;;;;;;;;;;;20.10;62.80;;;;;;1524244;76;1169;-59
2023/11/19 06:05:07;;;;;;;;;;;20.10;62.80;;;;;;1521748;76;1909;-60
2023/11/19 06:07:09;;;;;;;;;;;20.10;62.80;;;;;;1521395;76;802;-61
2023/11/19 06:09:12;;;;;;;;;;;20.10;62.90;;;;;;1530168;76;756;-61
2023/11/19 06:11:18;;;;;;;;;;;20.10;62.90;;;;;;1521255;76;1448;-60
2023/11/19 06:13:19;;;;;;;;;;;20.10;62.80;;;;;;1518807;76;1726;-60
2023/11/19 06:15:21;;;;;;;;;;;20.10;62.90;;;;;;1522746;76;768;-59
2023/11/19 06:17:23;;;;;;;;;;;20.10;63.00;;;;;;1519657;76;701;-59
2023/11/19 06:19:25;;;;;;;;;;;20.10;62.80;;;;;;1519956;76;901;-60
2023/11/19 06:21:26;;;;;;;;;;;20.10;63.00;;;;;;1517712;76;687;-61
2023/11/19 06:23:28;;;;;;;;;;;20.10;62.90;;;;;;1520369;76;1127;-60
2023/11/19 06:25:30;;;;;;;;;;;20.10;62.80;;;;;;1531032;76;1925;-62
2023/11/19 06:27:32;;;;;;;;;;;20.10;62.90;;;;;;1513365;76;736;-60
2023/11/19 06:29:34;;;;;;;;;;;20.10;62.80;;;;;;1522325;76;657;-59
2023/11/19 06:31:36;;;;;;;;;;;20.10;62.90;;;;;;1512847;76;771;-61
2023/11/19 06:33:38;;;;;;;;;;;20.20;62.90;;;;;;1519574;76;1143;-62
2023/11/19 06:35:40;;;;;;;;;;;20.10;63.00;;;;;;1531343;76;792;-62
2023/11/19 06:37:43;;;;;;;;;;;20.20;62.90;;;;;;1509245;76;789;-60
2023/11/19 06:39:45;;;;;;;;;;;20.10;62.90;;;;;;1525028;76;1674;-61
2023/11/19 06:41:47;;;;;;;;;;;20.10;63.00;;;;;;1521842;76;657;-61
2023/11/19 06:43:49;;;;;;;;;;;20.20;63.10;;;;;;1517127;76;825;-61
2023/11/19 06:45:50;;;;;;;;;;;20.20;63.10;;;;;;1524739;76;1944;-61
2023/11/19 06:47:52;;;;;;;;;;;20.20;63.00;;;;;;1521611;76;760;-62
2023/11/19 06:49:54;;;;;;;;;;;20.20;63.10;;;;;;1521565;76;794;-60
2023/11/19 06:51:56;;;;;;;;;;;20.20;63.10;;;;;;1522986;76;1595;-60
2023/11/19 06:53:59;;;;;;;;;;;20.20;63.20;;;;;;1524839;76;716;-60
2023/11/19 06:56:02;;;;;;;;;;;20.20;63.30;;;;;;1529651;76;728;-60
2023/11/19 06:58:06;;;;;;;;;;;20.20;63.30;;;;;;1530043;76;766;-60
2023/11/19 07:00:09;;;;;;;;;;;20.20;63.20;;;;;;1526547;76;663;-60
2023/11/19 07:02:11;;;;;;;;;;;20.20;63.10;;;;;;1535402;75;1133;-60
2023/11/19 07:04:12;;;;;;;;;;;20.20;63.20;;;;;;1525263;76;662;-61
2023/11/19 07:06:15;;;;;;;;;;;20.20;63.30;;;;;;1524782;76;1957;-60
2023/11/19 07:08:16;;;;;;;;;;;20.20;63.50;;;;;;1524786;76;685;-60
2023/11/19 07:10:18;;;;;;;;;;;20.20;63.10;;;;;;1524619;76;718;-60
2023/11/19 07:12:20;;;;;;;;;;;20.20;63.60;;;;;;1518671;76;1110;-60
2023/11/19 07:14:23;;;;;;;;;;;20.20;63.60;;;;;;1521685;76;866;-60
2023/11/19 07:16:25;;;;;;;;;;;20.20;63.30;;;;;;1521169;76;726;-60
2023/11/19 07:18:27;;;;;;;;;;;20.20;63.60;;;;;;1522444;76;733;-62
2023/11/19 07:20:29;;;;;;;;;;;20.20;63.60;;;;;;1522823;76;1306;-61
2023/11/19 07:22:30;;;;;;;;;;;20.20;63.70;;;;;;1524400;75;1151;-60
2023/11/19 07:24:32;;;;;;;;;;;20.30;63.90;;;;;;1514269;76;747;-61
2023/11/19 07:26:34;;;;;;;;;;;20.10;63.60;;;;;;1518632;76;1948;-61
2023/11/19 07:28:36;;;;;;;;;;;20.30;63.90;;;;;;1517234;76;788;-60
2023/11/19 07:30:38;;;;;;;;;;;20.20;64.00;;;;;;1516031;76;784;-59
2023/11/19 07:32:40;;;;;;;;;;;20.20;64.00;;;;;;1508263;76;1171;-59
2023/11/19 07:34:42;;;;;;;;;;;20.20;64.00;;;;;;1518102;76;1502;-60
2023/11/19 07:36:44;;;;;;;;;;;20.30;64.10;;;;;;1523601;76;758;-62
2023/11/19 07:38:47;;;;;;;;;;;20.20;63.70;;;;;;1520671;76;775;-60
2023/11/19 07:40:49;;;;;;;;;;;20.20;63.90;;;;;;1523441;76;677;-61
2023/11/19 07:42:51;;;;;;;;;;;20.30;64.00;;;;;;1520941;76;1139;-60
2023/11/19 07:44:55;;;;;;;;;;;20.30;64.00;;;;;;1515539;76;639;-60
2023/11/19 07:46:57;;;;;;;;;;;20.20;63.90;;;;;;1521109;76;1940;-60
2023/11/19 07:48:58;;;;;;;;;;;20.20;63.70;;;;;;1520726;76;1520;-61
2023/11/19 07:51:01;;;;;;;;;;;20.30;63.90;;;;;;1528444;76;754;-60
2023/11/19 07:53:04;;;;;;;;;;;20.20;63.80;;;;;;1517986;76;1146;-60
2023/11/19 07:55:06;;;;;;;;;;;20.20;63.80;;;;;;1521256;76;743;-60
2023/11/19 07:57:08;;;;;;;;;;;20.30;64.00;;;;;;1518148;76;787;-60
2023/11/19 07:59:10;;;;;;;;;;;20.20;63.90;;;;;;1519405;76;832;-62
2023/11/19 08:01:13;;;;;;;;;;;20.20;63.90;;;;;;1527453;76;824;-59
2023/11/19 08:03:15;;;;;;;;;;;20.20;63.90;;;;;;1522540;76;1339;-62
2023/11/19 08:05:17;;;;;;;;;;;20.30;63.90;;;;;;1523831;76;717;-61
2023/11/19 08:07:19;;;;;;;;;;;20.20;63.70;;;;;;1509289;76;1950;-60
2023/11/19 08:09:20;;;;;;;;;;;20.20;63.70;;;;;;1518952;76;738;-60
2023/11/19 08:11:22;;;;;;;;;;;20.20;63.70;;;;;;1519208;76;868;-60
2023/11/19 08:13:25;;;;;;;;;;;20.30;63.90;;;;;;1528389;75;1129;-60
2023/11/19 08:15:27;;;;;;;;;;;20.20;63.90;;;;;;1520621;76;787;-61
2023/11/19 08:17:28;;;;;;;;;;;20.30;63.90;;;;;;1523344;76;1538;-59
2023/11/19 08:19:30;;;;;;;;;;;20.20;64.10;;;;;;1520773;76;741;-60
2023/11/19 08:21:32;;;;;;;;;;;20.20;64.10;;;;;;1524138;76;766;-59
2023/11/19 08:23:34;;;;;;;;;;;20.20;64.00;;;;;;1523907;76;1119;-60
2023/11/19 08:25:36;;;;;;;;;;;20.20;63.80;;;;;;1531198;76;686;-59
2023/11/19 08:27:38;;;;;;;;;;;20.20;64.20;;;;;;1525898;76;1974;-59
2023/11/19 08:29:40;;;;;;;;;;;20.20;64.50;;;;;;1520036;76;720;-61
2023/11/19 08:31:42;;;;;;;;;;;20.20;64.50;;;;;;1525945;76;1518;-60
2023/11/19 08:33:44;;;;;;;;;;;20.20;64.50;;;;;;1523224;76;1100;-58
2023/11/19 08:35:47;;;;;;;;;;;20.30;64.70;;;;;;1515512;76;791;-59
2023/11/19 08:37:49;;;;;;;;;;;20.30;64.60;;;;;;1519071;76;786;-60
2023/11/19 08:39:53;;;;;;;;;;;20.30;64.60;;;;;;1520663;76;691;-58
2023/11/19 08:41:55;;;;;;;;;;;20.20;64.50;;;;;;1515337;76;1120;-61
2023/11/19 08:43:57;;;;;;;;;;;20.30;65.20;;;;;;1521804;76;671;-62
2023/11/19 08:45:59;;;;;;;;;;;20.30;65.30;;;;;;1519291;76;1926;-61
2023/11/19 08:48:01;;;;;;;;;;;20.40;65.10;;;;;;1519265;76;726;-61
2023/11/19 08:50:04;;;;;;;;;;;20.30;64.70;;;;;;1520090;76;778;-61
2023/11/19 08:52:10;;;;;;;;;;;20.30;64.60;;;;;;1520672;76;1153;-61
2023/11/19 08:54:10;;;;;;;;;;;20.30;64.30;;;;;;1513122;76;1590;-61
2023/11/19 08:56:11;;;;;;;;;;;20.40;64.00;;;;;;1519406;76;703;-61
2023/11/19 08:58:13;;;;;;;;;;;20.30;63.90;;;;;;1523814;76;876;-62
2023/11/19 09:00:15;;;;;;;;;;;20.40;64.00;;;;;;1519848;76;1290;-62
2023/11/19 09:02:18;;;;;;;;;;;20.40;64.50;;;;;;1521217;76;1177;-62
2023/11/19 09:04:26;;;;;;;;;;;20.40;64.50;;;;;;1519034;76;1079;-60
2023/11/19 09:06:25;;;;;;;;;;;20.30;64.40;;;;;;1522891;76;1941;-61
2023/11/19 09:08:27;;;;;;;;;;;20.30;64.40;;;;;;1521622;76;1370;-61
2023/11/19 09:10:29;;;;;;;;;;;20.30;64.20;;;;;;1520907;76;1175;-61
2023/11/19 09:12:31;;;;;;;;;;;20.30;64.20;;;;;;1521238;76;1142;-59
2023/11/19 09:14:33;;;;;;;;;;;20.40;64.20;;;;;;1518223;76;1527;-63
2023/11/19 09:16:36;;;;;;;;;;;20.40;64.10;;;;;;1520384;76;1392;-62
2023/11/19 09:18:38;;;;;;;;;;;20.30;64.00;;;;;;1522926;76;1254;-62
2023/11/19 09:20:40;;;;;;;;;;;20.30;63.90;;;;;;1519381;76;1260;-62
2023/11/19 09:22:43;;;;;;;;;;;20.40;63.90;;;;;;1520638;75;1163;-62
2023/11/19 09:24:44;;;;;;;;;;;20.40;63.80;;;;;;1517342;76;1284;-61
2023/11/19 09:26:46;;;;;;;;;;;20.40;63.70;;;;;;1525453;76;1902;-58
2023/11/19 09:28:48;;;;;;;;;;;20.30;63.60;;;;;;1524166;76;1595;-59
2023/11/19 09:30:50;;;;;;;;;;;20.30;63.60;;;;;;1526328;76;1260;-56
2023/11/19 09:32:52;;;;;;;;;;;20.30;63.50;;;;;;1516698;76;1347;-60
2023/11/19 09:34:54;;;;;;;;;;;20.30;63.50;;;;;;1521870;76;1230;-56
2023/11/19 09:36:56;;;;;;;;;;;20.40;63.40;;;;;;1515580;76;1044;-59
2023/11/19 09:39:00;;;;;;;;;;;20.30;63.30;;;;;;1522880;76;1282;-59
2023/11/19 09:41:21;;;;;;;;;;;20.30;63.20;;;;;;1516077;76;1430;-60
2023/11/19 09:43:14;;;;;;;;;;;20.30;63.10;;;;;;1512779;76;1165;-60
2023/11/19 09:45:17;;;;;;;;;;;20.40;63.10;;;;;;1521414;76;1272;-59
2023/11/19 09:47:20;;;;;;;;;;;20.40;63.00;;;;;;1522110;76;1908;-61
2023/11/19 09:49:23;;;;;;;;;;;20.30;63.00;;;;;;1528130;76;1132;-60
2023/11/19 09:51:26;;;;;;;;;;;20.30;63.00;;;;;;1527337;76;1217;-60
2023/11/19 09:53:28;;;;;;;;;;;20.30;63.00;;;;;;1511274;76;1185;-59
2023/11/19 09:55:29;;;;;;;;;;;20.30;62.90;;;;;;1515693;76;1573;-61
2023/11/19 09:57:31;;;;;;;;;;;20.30;62.90;;;;;;1522172;76;1202;-60
2023/11/19 09:59:33;;;;;;;;;;;20.30;62.90;;;;;;1523062;76;1173;-60
2023/11/19 10:01:35;;;;;;;;;;;20.40;62.90;;;;;;1516487;76;1103;-60
2023/11/19 10:03:40;;;;;;;;;;;20.30;62.90;;;;;;1514135;76;1171;-60
2023/11/19 10:05:42;;;;;;;;;;;20.30;62.90;;;;;;1519724;76;1092;-60
2023/11/19 10:07:44;;;;;;;;;;;20.30;62.80;;;;;;1517546;76;1941;-60
2023/11/19 10:09:47;;;;;;;;;;;20.30;62.80;;;;;;1518832;76;1522;-60
2023/11/19 10:11:49;;;;;;;;;;;20.40;62.80;;;;;;1527232;75;1268;-61
2023/11/19 10:13:52;;;;;;;;;;;20.30;62.80;;;;;;1520331;76;1260;-62
2023/11/19 10:15:54;;;;;;;;;;;20.30;62.80;;;;;;1512023;76;1147;-58
2023/11/19 10:17:59;;;;;;;;;;;20.40;62.80;;;;;;1522267;76;1317;-58
2023/11/19 10:20:02;;;;;;;;;;;20.30;62.80;;;;;;1515305;76;1256;-59
2023/11/19 10:22:04;;;;;;;;;;;20.30;62.70;;;;;;1523032;76;1558;-59
2023/11/19 10:24:06;;;;;;;;;;;20.30;62.70;;;;;;1516724;76;1484;-60
2023/11/19 10:26:08;;;;;;;;;;;20.40;62.70;;;;;;1523438;76;1146;-57
2023/11/19 10:28:10;;;;;;;;;;;20.30;62.70;;;;;;1525277;76;1932;-59
2023/11/19 10:30:12;;;;;;;;;;;20.30;62.60;;;;;;1518530;76;1140;-59
2023/11/19 10:32:17;;;;;;;;;;;20.20;62.50;;;;;;1516133;76;1253;-56
2023/11/19 10:34:26;;;;;;;;;;;20.30;62.60;;;;;;1525139;76;1240;-58
2023/11/19 10:36:43;;;;;;;;;;;20.30;62.60;;;;;;1528519;76;1248;-60
2023/11/19 10:38:42;;;;;;;;;;;20.30;62.60;;;;;;1509206;76;1595;-61
2023/11/19 10:40:44;;;;;;;;;;;20.40;62.50;;;;;;1501072;77;1062;-61
2023/11/19 10:42:46;;;;;;;;;;;20.30;62.50;;;;;;1524100;76;1157;-61
2023/11/19 10:44:48;;;;;;;;;;;20.30;62.50;;;;;;1529422;76;1131;-61
2023/11/19 10:46:50;;;;;;;;;;;20.30;62.40;;;;;;1519632;76;1941;-62
2023/11/19 10:48:55;;;;;;;;;;;20.30;62.40;;;;;;1530396;76;1337;-61
2023/11/19 10:50:56;;;;;;;;;;;20.30;62.40;;;;;;1525216;76;1372;-60
2023/11/19 10:53:01;;;;;;;;;;;20.40;62.40;;;;;;1526546;75;1744;-62
2023/11/19 10:55:04;;;;;;;;;;;20.40;62.40;;;;;;1522783;76;1386;-61
2023/11/19 10:57:06;;;;;;;;;;;20.30;62.40;;;;;;1519468;76;1142;-61
2023/11/19 10:59:11;;;;;;;;;;;20.40;62.30;;;;;;1531271;76;1283;-59
2023/11/19 11:01:16;;;;;;;;;;;20.30;62.30;;;;;;1521337;76;1564;-58
2023/11/19 11:03:19;;;;;;;;;;;20.30;62.30;;;;;;1521973;76;1795;-62
2023/11/19 11:05:21;;;;;;;;;;;20.40;62.30;;;;;;1522398;76;1317;-61
2023/11/19 11:07:25;;;;;;;;;;;20.30;62.30;;;;;;1518693;76;1960;-59
2023/11/19 11:09:27;;;;;;;;;;;20.30;62.30;;;;;;1510418;76;1645;-62
2023/11/19 11:11:30;;;;;;;;;;;20.40;62.30;;;;;;1522672;76;1313;-61
2023/11/19 11:13:32;;;;;;;;;;;20.30;62.20;;;;;;1523588;76;1368;-61
2023/11/19 11:15:34;;;;;;;;;;;20.30;62.20;;;;;;1519837;76;1244;-57
2023/11/19 11:17:35;;;;;;;;;;;20.30;62.20;;;;;;1525555;76;1184;-60
2023/11/19 11:19:37;;;;;;;;;;;20.30;62.10;;;;;;1520188;76;1516;-58
2023/11/19 11:21:39;;;;;;;;;;;20.30;62.20;;;;;;1522819;76;1080;-61
2023/11/19 11:23:43;;;;;;;;;;;20.30;62.20;;;;;;1519700;75;1107;-59
2023/11/19 11:26:04;;;;;;;;;;;20.40;62.10;;;;;;1521368;76;1037;-57
2023/11/19 11:28:07;;;;;;;;;;;20.40;62.10;;;;;;1520866;76;1927;-59
2023/11/19 11:30:11;;;;;;;;;;;20.30;62.10;;;;;;1534674;76;1936;-60
2023/11/19 11:32:26;;;;;;;;;;;20.30;62.00;;;;;;1524451;76;1275;-59
2023/11/19 11:34:30;;;;;;;;;;;20.30;62.10;;;;;;1523290;76;1558;-59
2023/11/19 11:36:32;;;;;;;;;;;20.30;62.10;;;;;;1521813;76;1337;-57
2023/11/19 11:38:36;;;;;;;;;;;20.30;62.00;;;;;;1520676;76;1312;-55
2023/11/19 11:40:38;;;;;;;;;;;20.30;62.00;;;;;;1518711;76;1452;-56
2023/11/19 11:42:41;;;;;;;;;;;20.30;62.00;;;;;;1524095;76;1240;-57
2023/11/19 11:45:04;;;;;;;;;;;20.30;62.00;;;;;;1523132;76;1394;-57
2023/11/19 11:47:06;;;;;;;;;;;20.30;62.00;;;;;;1520659;76;1944;-60
2023/11/19 11:49:08;;;;;;;;;;;20.30;62.00;;;;;;1527039;76;1691;-59
2023/11/19 11:51:10;;;;;;;;;;;20.30;61.90;;;;;;1519212;76;1301;-58
2023/11/19 11:53:16;;;;;;;;;;;20.30;61.90;;;;;;1522768;76;1420;-58
2023/11/19 11:55:18;;;;;;;;;;;20.30;62.00;;;;;;1521119;76;1346;-60
2023/11/19 11:57:20;;;;;;;;;;;20.30;62.00;;;;;;1519805;76;1147;-59
2023/11/19 11:59:24;;;;;;;;;;;20.30;62.00;;;;;;1520008;76;1265;-66
2023/11/19 12:01:29;;;;;;;;;;;20.30;62.30;;;;;;1519053;76;1512;-70
2023/11/19 12:03:30;;;;;;;;;;;20.40;62.70;;;;;;1523922;76;1666;-67
2023/11/19 12:05:33;;;;;;;;;;;20.60;62.00;;;;;;1531161;76;1424;-68
2023/11/19 12:07:38;;;;;;;;;;;20.70;61.70;;;;;;1522400;76;1925;-66